Time;durP1;ratioP1;P1;durP2;ratioP2;P2;SDS_P1;SDS_P2;PMS_P1;PMS_P2;Temp;Humidity;BMP_temperature;BMP_pressure;BME280_temperature;BME280_humidity;BME280_pressure;Samples;Min_cycle;Max_cycle;Signal;HPM_P1;HPM_P2
2023/01/23 00:01:29;;;;;;;6.10;2.87;;;3.30;99.90;;;;;;5039800;28;21013;-61
2023/01/23 00:03:57;;;;;;;6.60;2.73;;;3.40;99.90;;;;;;5035561;28;20495;-61
2023/01/23 00:06:27;;;;;;;4.23;2.60;;;3.30;99.90;;;;;;5038146;28;20467;-61
2023/01/23 00:08:56;;;;;;;5.33;2.57;;;3.30;99.90;;;;;;5032698;28;20527;-61
2023/01/23 00:11:25;;;;;;;4.23;2.13;;;3.30;99.90;;;;;;5032172;28;20462;-61
2023/01/23 00:13:54;;;;;;;4.63;2.23;;;3.30;99.90;;;;;;5032430;28;20468;-61
2023/01/23 00:16:24;;;;;;;3.90;2.47;;;3.30;99.90;;;;;;5032602;28;20975;-61
2023/01/23 00:18:52;;;;;;;5.23;2.50;;;3.30;99.90;;;;;;5032360;28;20474;-61
2023/01/23 00:21:22;;;;;;;3.87;2.17;;;3.30;99.90;;;;;;5032610;28;20463;-61
2023/01/23 00:23:53;;;;;;;7.87;2.70;;;3.30;99.90;;;;;;5032577;28;20987;-61
2023/01/23 00:26:23;;;;;;;3.37;2.43;;;3.40;99.90;;;;;;5032450;28;20517;-61
2023/01/23 00:28:51;;;;;;;4.97;2.37;;;3.40;99.90;;;;;;5040575;28;20469;-61
2023/01/23 00:31:23;;;;;;;5.23;2.63;;;3.50;99.90;;;;;;5044809;28;20478;-61
2023/01/23 00:33:54;;;;;;;5.77;2.53;;;3.60;99.90;;;;;;5050949;28;20494;-61
2023/01/23 00:36:24;;;;;;;4.83;2.27;;;3.40;99.90;;;;;;5045969;28;20491;-61
2023/01/23 00:38:56;;;;;;;4.60;2.50;;;3.40;99.90;;;;;;5052432;28;20497;-61
2023/01/23 00:41:25;;;;;;;5.70;2.60;;;3.40;99.90;;;;;;5050688;28;20473;-61
2023/01/23 00:43:53;;;;;;;3.03;2.27;;;3.30;99.90;;;;;;5051927;28;20480;-61
2023/01/23 00:46:22;;;;;;;4.27;2.40;;;3.30;99.90;;;;;;5051975;28;20457;-61
2023/01/23 00:48:51;;;;;;;3.63;2.40;;;3.30;99.90;;;;;;5051919;28;20461;-61
2023/01/23 00:51:19;;;;;;;6.30;2.67;;;3.30;99.90;;;;;;5052217;28;20470;-61
2023/01/23 00:53:47;;;;;;;5.13;2.60;;;3.30;99.90;;;;;;5051668;28;20536;-61
2023/01/23 00:56:17;;;;;;;4.83;2.67;;;3.20;99.90;;;;;;5039211;28;20814;-61
2023/01/23 00:58:45;;;;;;;5.43;2.53;;;3.30;99.90;;;;;;5043498;28;20467;-61
2023/01/23 01:01:13;;;;;;;4.80;2.80;;;3.30;99.90;;;;;;5047418;28;20551;-61
2023/01/23 01:03:42;;;;;;;4.97;2.50;;;3.30;99.90;;;;;;5053741;28;20482;-61
2023/01/23 01:06:11;;;;;;;3.30;2.60;;;3.30;99.90;;;;;;5043454;28;20518;-61
2023/01/23 01:08:39;;;;;;;4.43;2.60;;;3.30;99.90;;;;;;5033770;28;20971;-61
2023/01/23 01:11:08;;;;;;;5.57;2.30;;;3.30;99.90;;;;;;5035205;28;20463;-61
2023/01/23 01:13:37;;;;;;;2.73;2.20;;;3.30;99.90;;;;;;5033862;28;20475;-60
2023/01/23 01:16:06;;;;;;;5.17;2.57;;;3.20;99.90;;;;;;5035222;28;20461;-61
2023/01/23 01:18:36;;;;;;;5.90;2.40;;;3.20;99.90;;;;;;5035357;28;20520;-61
2023/01/23 01:21:07;;;;;;;4.43;2.20;;;3.30;99.90;;;;;;5035395;28;20462;-61
2023/01/23 01:23:36;;;;;;;3.83;2.37;;;3.30;99.90;;;;;;5037502;28;20482;-61
2023/01/23 01:26:05;;;;;;;3.60;2.20;;;3.30;99.90;;;;;;5033739;28;20472;-61
2023/01/23 01:28:34;;;;;;;5.47;2.33;;;3.30;99.90;;;;;;5041474;28;20488;-61
2023/01/23 01:31:07;;;;;;;3.10;2.20;;;3.30;99.90;;;;;;5035403;28;20479;-61
2023/01/23 01:33:36;;;;;;;4.03;2.10;;;3.20;99.90;;;;;;5046098;28;20232;-61
2023/01/23 01:36:08;;;;;;;3.07;2.20;;;3.30;99.90;;;;;;5046628;28;20456;-61
2023/01/23 01:38:37;;;;;;;3.83;1.87;;;3.30;99.90;;;;;;5054867;28;20459;-61
2023/01/23 01:41:06;;;;;;;3.60;2.00;;;3.30;99.90;;;;;;5055040;28;20454;-61
2023/01/23 01:43:35;;;;;;;2.30;1.90;;;3.30;99.90;;;;;;5053252;28;20482;-61
2023/01/23 01:46:19;;;;;;;3.03;2.00;;;3.30;99.90;;;;;;5053433;28;20511;-61
2023/01/23 01:48:59;;;;;;;2.57;1.90;;;3.30;99.90;;;;;;5054479;28;20465;-61
2023/01/23 01:51:31;;;;;;;4.00;1.80;;;3.20;99.90;;;;;;5054567;28;20552;-61
2023/01/23 01:54:06;;;;;;;2.60;1.80;;;3.20;99.90;;;;;;5053132;28;20526;-61
2023/01/23 01:56:38;;;;;;;4.70;2.30;;;3.30;99.90;;;;;;5039124;28;20467;-61
2023/01/23 01:59:08;;;;;;;2.60;1.83;;;3.20;99.90;;;;;;5042560;28;20510;-61
2023/01/23 02:01:38;;;;;;;4.83;1.87;;;3.20;99.90;;;;;;5034138;28;20484;-61
2023/01/23 02:04:07;;;;;;;5.50;2.53;;;3.20;99.90;;;;;;5046924;28;20876;-61
2023/01/23 02:06:35;;;;;;;3.90;1.87;;;3.20;99.90;;;;;;5049459;28;20824;-61
2023/01/23 02:09:09;;;;;;;3.70;2.20;;;3.10;99.90;;;;;;5052078;28;20483;-61
2023/01/23 02:11:38;;;;;;;2.37;2.07;;;3.20;99.90;;;;;;5069511;28;20480;-61
2023/01/23 02:14:06;;;;;;;5.20;2.50;;;3.10;99.90;;;;;;5054371;28;20463;-61
2023/01/23 02:16:39;;;;;;;4.57;2.70;;;3.10;99.90;;;;;;5052684;28;20466;-61
2023/01/23 02:19:16;;;;;;;3.23;2.00;;;3.10;99.90;;;;;;5054018;28;20465;-61
2023/01/23 02:21:47;;;;;;;2.90;2.30;;;3.30;99.90;;;;;;5053841;28;20464;-61
2023/01/23 02:24:25;;;;;;;5.07;2.40;;;3.20;99.90;;;;;;5054059;28;20595;-61
2023/01/23 02:26:54;;;;;;;3.83;2.50;;;3.20;99.90;;;;;;5035662;28;20956;-61
2023/01/23 02:29:24;;;;;;;3.53;2.80;;;3.20;99.90;;;;;;5057363;28;20514;-61
2023/01/23 02:31:55;;;;;;;4.47;2.83;;;3.10;99.90;;;;;;5031880;28;20507;-61
2023/01/23 02:34:28;;;;;;;3.60;2.77;;;3.10;99.90;;;;;;5045837;28;20467;-61
2023/01/23 02:37:00;;;;;;;7.83;3.20;;;3.20;99.90;;;;;;5051206;28;20469;-61
2023/01/23 02:39:30;;;;;;;5.93;3.13;;;3.10;99.90;;;;;;5052142;28;20475;-61
2023/01/23 02:42:00;;;;;;;5.60;3.43;;;3.10;99.90;;;;;;5046792;28;20476;-61
2023/01/23 02:44:41;;;;;;;4.83;2.90;;;3.10;99.90;;;;;;5032127;28;20493;-61
2023/01/23 02:47:11;;;;;;;4.20;3.40;;;3.20;99.90;;;;;;5032316;28;20827;-61
2023/01/23 02:49:41;;;;;;;7.23;4.00;;;3.10;99.90;;;;;;5032047;28;20471;-61
2023/01/23 02:52:10;;;;;;;6.87;3.70;;;3.10;99.90;;;;;;5032109;28;21033;-61
2023/01/23 02:54:39;;;;;;;4.23;3.53;;;3.10;99.90;;;;;;5033260;28;20477;-61
2023/01/23 02:57:08;;;;;;;6.07;3.50;;;3.20;99.90;;;;;;5033229;28;20451;-61
2023/01/23 03:02:23;;;;;;;7.67;4.17;;;3.10;99.90;;;;;;5044172;28;20516;-61
2023/01/23 03:04:52;;;;;;;5.10;3.80;;;3.20;99.90;;;;;;5043099;28;20805;-61
2023/01/23 03:07:21;;;;;;;4.47;3.93;;;3.10;99.90;;;;;;5053087;28;20474;-61
2023/01/23 03:09:49;;;;;;;5.90;4.13;;;3.10;99.90;;;;;;5052980;28;20457;-61
2023/01/23 03:12:19;;;;;;;8.73;4.80;;;3.20;99.90;;;;;;5051777;28;20502;-61
2023/01/23 03:14:52;;;;;;;6.57;4.47;;;3.10;99.90;;;;;;5052823;28;20454;-61
2023/01/23 03:17:21;;;;;;;5.87;4.43;;;3.10;99.90;;;;;;5051763;28;20508;-61
2023/01/23 03:19:49;;;;;;;6.37;4.37;;;3.10;99.90;;;;;;5051210;28;20471;-61
2023/01/23 03:22:17;;;;;;;6.30;4.63;;;3.10;99.90;;;;;;5051622;28;20879;-61
2023/01/23 03:24:45;;;;;;;9.40;5.17;;;3.10;99.90;;;;;;5052399;28;20490;-61
2023/01/23 03:27:13;;;;;;;7.17;5.13;;;3.10;99.90;;;;;;5031511;28;20476;-61
2023/01/23 03:32:33;;;;;;;8.83;5.73;;;3.10;99.90;;;;;;5067708;28;20526;-61
2023/01/23 03:35:01;;;;;;;8.60;5.30;;;3.10;99.90;;;;;;5042981;28;20564;-61
2023/01/23 03:37:29;;;;;;;8.20;5.23;;;3.10;99.90;;;;;;5068000;28;20876;-61
2023/01/23 03:42:44;;;;;;;6.80;5.53;;;3.20;99.90;;;;;;5067843;28;20462;-61
2023/01/23 03:45:16;;;;;;;7.60;5.37;;;3.30;99.90;;;;;;5051288;28;20501;-61
2023/01/23 03:47:44;;;;;;;8.07;5.30;;;3.20;99.90;;;;;;5051174;28;20458;-61
2023/01/23 03:50:12;;;;;;;7.13;5.20;;;3.20;99.90;;;;;;5051195;28;20473;-61
2023/01/23 03:52:41;;;;;;;7.03;6.03;;;3.50;99.90;;;;;;5052403;28;20490;-61
2023/01/23 03:55:10;;;;;;;6.93;5.83;;;3.40;99.90;;;;;;5047304;28;20475;-61
2023/01/23 03:57:39;;;;;;;7.93;6.37;;;3.40;99.90;;;;;;5034026;28;20473;-61
2023/01/23 04:00:20;;;;;;;8.83;5.27;;;3.40;99.90;;;;;;5041820;28;21024;-61
2023/01/23 04:02:56;;;;;;;6.63;5.80;;;3.40;99.90;;;;;;5045648;28;20474;-61
2023/01/23 04:05:24;;;;;;;7.57;6.03;;;3.30;99.90;;;;;;5042602;28;20492;-61
2023/01/23 04:07:52;;;;;;;8.60;6.13;;;3.20;99.90;;;;;;5033325;28;20532;-61
2023/01/23 04:10:20;;;;;;;8.20;6.03;;;3.20;99.90;;;;;;5032559;28;20869;-61
2023/01/23 04:12:53;;;;;;;7.53;6.00;;;3.20;99.90;;;;;;5031301;28;20474;-61
2023/01/23 04:15:23;;;;;;;7.53;6.17;;;3.20;99.90;;;;;;5032485;28;20540;-60
2023/01/23 04:17:53;;;;;;;7.10;6.40;;;3.20;99.90;;;;;;5031360;28;20832;-61
2023/01/23 04:20:24;;;;;;;8.07;5.80;;;3.10;99.90;;;;;;5031052;28;20499;-61
2023/01/23 04:22:53;;;;;;;7.03;6.13;;;3.30;99.90;;;;;;5031016;28;20972;-61
2023/01/23 04:25:22;;;;;;;8.07;6.47;;;3.20;99.90;;;;;;5030879;28;21048;-61
2023/01/23 04:27:50;;;;;;;8.47;6.47;;;3.20;99.90;;;;;;5035406;28;20469;-61
2023/01/23 04:30:18;;;;;;;7.10;6.27;;;3.10;99.90;;;;;;5058690;28;20559;-61
2023/01/23 04:32:48;;;;;;;10.40;7.10;;;3.10;99.90;;;;;;5064336;28;20828;-61
2023/01/23 04:35:18;;;;;;;8.20;6.50;;;3.20;99.90;;;;;;5047553;28;20513;-61
2023/01/23 04:37:47;;;;;;;7.33;6.27;;;3.20;99.90;;;;;;5054598;28;20468;-61
2023/01/23 04:40:15;;;;;;;7.77;6.47;;;3.30;99.90;;;;;;5054645;28;20565;-61
2023/01/23 04:42:51;;;;;;;11.00;6.40;;;3.20;99.90;;;;;;5054644;28;20520;-60
2023/01/23 04:45:30;;;;;;;8.87;6.97;;;3.20;99.90;;;;;;5054477;28;20530;-61
2023/01/23 04:48:14;;;;;;;7.83;6.53;;;3.10;99.90;;;;;;5044230;28;20484;-61
2023/01/23 04:50:43;;;;;;;8.37;6.13;;;3.20;99.90;;;;;;5034183;28;20507;-61
2023/01/23 04:53:12;;;;;;;8.80;7.20;;;3.30;99.90;;;;;;5035934;28;20973;-61
2023/01/23 04:55:41;;;;;;;9.33;7.40;;;3.30;99.90;;;;;;5034161;28;20475;-61
2023/01/23 04:58:14;;;;;;;8.07;7.27;;;3.20;99.90;;;;;;5034498;28;20503;-61
2023/01/23 05:00:42;;;;;;;9.80;7.33;;;3.10;99.90;;;;;;5061996;28;20558;-61
2023/01/23 05:03:10;;;;;;;8.67;7.20;;;3.20;99.90;;;;;;5055515;28;20501;-61
2023/01/23 05:05:44;;;;;;;9.93;7.87;;;3.10;99.90;;;;;;5062341;28;20574;-61
2023/01/23 05:08:13;;;;;;;12.07;7.83;;;3.20;99.90;;;;;;5054235;28;20994;-61
2023/01/23 05:10:45;;;;;;;10.13;8.13;;;3.10;99.90;;;;;;5070676;28;20948;-61
2023/01/23 05:13:16;;;;;;;10.63;8.33;;;3.10;99.90;;;;;;5054038;28;20976;-61
2023/01/23 05:15:44;;;;;;;10.87;7.80;;;3.40;99.90;;;;;;5070455;28;20464;-61
2023/01/23 05:18:13;;;;;;;12.03;7.60;;;3.40;99.90;;;;;;5052074;28;20473;-61
2023/01/23 05:20:41;;;;;;;10.63;7.87;;;3.30;99.90;;;;;;5034602;28;20967;-61
2023/01/23 05:23:11;;;;;;;10.93;8.50;;;3.40;99.90;;;;;;5042514;28;20490;-61
2023/01/23 05:25:48;;;;;;;8.50;7.50;;;3.30;99.90;;;;;;5035218;28;20984;-61
2023/01/23 05:28:16;;;;;;;11.83;7.93;;;3.30;99.90;;;;;;5035597;28;20904;-61
2023/01/23 05:30:48;;;;;;;10.97;8.20;;;3.30;99.90;;;;;;5061382;28;20478;-61
2023/01/23 05:33:39;;;;;;;8.10;7.30;;;3.20;99.90;;;;;;5054545;28;20466;-61
2023/01/23 05:36:08;;;;;;;10.07;7.23;;;3.10;99.90;;;;;;5045400;28;21079;-61
2023/01/23 05:38:39;;;;;;;9.50;7.80;;;3.20;99.90;;;;;;5070081;28;21070;-61
2023/01/23 05:41:07;;;;;;;10.80;8.13;;;3.20;99.90;;;;;;5053650;28;20563;-61
2023/01/23 05:43:55;;;;;;;9.70;7.47;;;3.10;99.90;;;;;;5051739;28;20471;-61
2023/01/23 05:47:02;;;;;;;8.70;7.27;;;3.10;99.90;;;;;;5030530;28;20857;-61
2023/01/23 05:49:30;;;;;;;8.43;6.77;;;3.10;99.90;;;;;;5033298;28;20464;-61
2023/01/23 05:51:59;;;;;;;9.00;7.43;;;3.10;99.90;;;;;;5033322;28;20475;-60
2023/01/23 05:54:29;;;;;;;9.83;6.80;;;3.10;99.90;;;;;;5032777;28;20481;-61
2023/01/23 05:56:58;;;;;;;9.03;6.47;;;3.10;99.90;;;;;;5033506;28;20459;-61
2023/01/23 05:59:44;;;;;;;9.60;7.10;;;3.10;99.90;;;;;;5039188;28;20449;-61
2023/01/23 06:02:31;;;;;;;9.43;7.33;;;3.10;99.90;;;;;;5053909;28;20488;-61
2023/01/23 06:05:22;;;;;;;10.47;7.20;;;3.10;99.90;;;;;;5038143;28;20974;-61
2023/01/23 06:08:01;;;;;;;8.80;6.50;;;3.10;99.90;;;;;;5032808;28;20470;-61
2023/01/23 06:10:31;;;;;;;8.27;6.43;;;3.10;99.90;;;;;;5029881;28;20559;-60
2023/01/23 06:12:59;;;;;;;10.53;7.23;;;3.20;99.90;;;;;;5032458;28;20467;-61
2023/01/23 06:15:27;;;;;;;9.07;6.67;;;3.40;99.90;;;;;;5032767;28;20581;-60
2023/01/23 06:17:57;;;;;;;8.43;6.73;;;3.20;99.90;;;;;;5032991;28;20475;-61
2023/01/23 06:20:26;;;;;;;9.10;7.20;;;3.20;99.90;;;;;;5031587;28;20476;-60
2023/01/23 06:22:54;;;;;;;7.37;6.37;;;3.10;99.90;;;;;;5032402;28;20468;-61
2023/01/23 06:25:22;;;;;;;8.73;6.17;;;3.10;99.90;;;;;;5046900;28;20574;-61
2023/01/23 06:27:54;;;;;;;8.53;6.67;;;3.10;99.90;;;;;;5036344;28;20471;-61
2023/01/23 06:30:24;;;;;;;7.07;5.70;;;3.20;99.90;;;;;;5043790;28;20478;-59
2023/01/23 06:32:52;;;;;;;7.73;6.63;;;3.40;99.90;;;;;;5033813;28;20911;-61
2023/01/23 06:35:27;;;;;;;9.20;6.73;;;3.40;99.90;;;;;;5046158;28;20482;-61
2023/01/23 06:37:55;;;;;;;9.50;6.90;;;3.30;99.90;;;;;;5031360;28;20467;-61
2023/01/23 06:40:24;;;;;;;8.73;6.67;;;3.10;99.90;;;;;;5029839;28;20568;-61
2023/01/23 06:43:15;;;;;;;7.13;6.27;;;3.10;99.90;;;;;;5030533;28;20883;-61
2023/01/23 06:45:44;;;;;;;7.13;5.83;;;3.30;99.90;;;;;;5030827;28;20496;-61
2023/01/23 06:48:12;;;;;;;10.13;7.50;;;3.40;99.90;;;;;;5035702;28;20470;-61
2023/01/23 06:50:43;;;;;;;9.63;7.20;;;3.40;99.90;;;;;;5031916;28;20477;-61
2023/01/23 06:53:14;;;;;;;10.70;6.87;;;3.40;99.90;;;;;;5027722;28;20547;-61
2023/01/23 06:55:43;;;;;;;9.50;7.50;;;3.30;99.90;;;;;;5030797;28;20575;-61
2023/01/23 06:58:14;;;;;;;9.20;7.70;;;3.30;99.90;;;;;;5050395;28;20503;-61
2023/01/23 07:00:43;;;;;;;10.77;8.17;;;3.20;99.90;;;;;;5033938;28;20568;-61
2023/01/23 07:03:21;;;;;;;10.40;7.97;;;3.40;99.90;;;;;;5044898;28;20463;-61
2023/01/23 07:05:49;;;;;;;8.37;7.30;;;3.30;99.90;;;;;;5047536;28;20481;-61
2023/01/23 07:08:17;;;;;;;8.17;7.17;;;3.20;99.90;;;;;;5036082;28;20466;-61
2023/01/23 07:10:45;;;;;;;7.90;6.93;;;3.20;99.90;;;;;;5047636;28;20566;-61
2023/01/23 07:13:15;;;;;;;9.67;7.40;;;3.10;99.90;;;;;;5034777;28;20819;-61
2023/01/23 07:15:46;;;;;;;8.13;7.17;;;3.20;99.90;;;;;;5030914;28;20464;-61
2023/01/23 07:18:14;;;;;;;9.73;7.67;;;3.30;99.90;;;;;;5023940;28;21005;-61
2023/01/23 07:20:44;;;;;;;9.63;7.53;;;3.10;99.90;;;;;;5032529;28;20471;-61
2023/01/23 07:23:12;;;;;;;11.33;8.63;;;3.30;99.90;;;;;;5029697;28;20470;-61
2023/01/23 07:25:40;;;;;;;9.87;8.77;;;3.40;99.90;;;;;;5034214;28;20470;-61
2023/01/23 07:28:08;;;;;;;11.83;9.17;;;3.30;99.90;;;;;;5033625;28;20516;-61
2023/01/23 07:30:38;;;;;;;12.90;8.30;;;3.20;99.90;;;;;;5037614;28;20867;-61
2023/01/23 07:33:06;;;;;;;11.20;8.20;;;3.20;99.90;;;;;;5035956;28;20982;-61
2023/01/23 07:35:34;;;;;;;10.83;8.87;;;3.30;99.90;;;;;;5041421;28;20459;-61
2023/01/23 07:38:02;;;;;;;11.10;8.60;;;3.30;99.90;;;;;;5032607;28;20468;-61
2023/01/23 07:40:30;;;;;;;10.73;7.93;;;3.20;99.90;;;;;;5032710;28;20463;-61
2023/01/23 07:42:59;;;;;;;11.97;9.20;;;3.40;99.90;;;;;;5032505;28;20459;-61
2023/01/23 07:45:27;;;;;;;9.13;7.90;;;3.30;99.90;;;;;;5032314;28;20464;-61
2023/01/23 07:47:56;;;;;;;12.07;9.37;;;3.30;99.90;;;;;;5032607;28;20489;-61
2023/01/23 07:50:24;;;;;;;12.40;9.50;;;3.30;99.90;;;;;;5032420;28;20469;-61
2023/01/23 07:52:52;;;;;;;11.33;9.43;;;3.40;99.90;;;;;;5032463;28;20797;-61
2023/01/23 07:55:23;;;;;;;12.50;9.33;;;3.40;99.90;;;;;;5032265;28;20482;-61
2023/01/23 07:57:51;;;;;;;12.20;8.90;;;3.40;99.90;;;;;;5035161;28;20557;-61
2023/01/23 08:00:20;;;;;;;12.53;9.87;;;3.40;99.90;;;;;;5033282;28;20465;-61
2023/01/23 08:02:51;;;;;;;11.83;10.00;;;3.30;99.90;;;;;;5033579;28;21206;-61
2023/01/23 08:05:21;;;;;;;10.73;9.23;;;3.20;99.90;;;;;;5044177;28;20807;-61
2023/01/23 08:07:49;;;;;;;14.10;10.20;;;3.30;99.90;;;;;;5034848;28;20965;-61
2023/01/23 08:10:24;;;;;;;11.17;9.33;;;3.20;99.90;;;;;;5036574;28;20468;-61
2023/01/23 08:12:52;;;;;;;12.63;9.50;;;3.20;99.90;;;;;;5036675;28;20469;-61
2023/01/23 08:15:20;;;;;;;11.80;9.53;;;3.20;99.90;;;;;;5029560;28;20872;-61
2023/01/23 08:17:48;;;;;;;11.43;9.50;;;3.20;99.90;;;;;;5032438;28;20488;-61
2023/01/23 08:20:17;;;;;;;12.07;10.13;;;3.20;99.90;;;;;;5036203;28;20817;-61
2023/01/23 08:22:47;;;;;;;10.87;9.40;;;3.20;99.90;;;;;;5036018;28;20469;-61
2023/01/23 08:25:15;;;;;;;11.23;9.23;;;3.20;99.90;;;;;;5036144;28;20469;-61
2023/01/23 08:27:43;;;;;;;13.60;9.77;;;3.30;99.90;;;;;;5035627;28;20499;-61
2023/01/23 08:30:12;;;;;;;11.63;9.67;;;3.20;99.90;;;;;;5040552;28;21034;-61
2023/01/23 08:32:40;;;;;;;14.20;10.43;;;3.20;99.90;;;;;;5041084;28;20521;-61
2023/01/23 08:35:09;;;;;;;11.83;9.47;;;3.20;99.90;;;;;;5045146;28;20467;-61
2023/01/23 08:37:37;;;;;;;14.17;9.70;;;3.10;99.90;;;;;;5036055;28;20475;-61
2023/01/23 08:40:08;;;;;;;13.17;10.07;;;3.20;99.90;;;;;;5036230;28;20907;-61
2023/01/23 08:42:36;;;;;;;13.07;9.57;;;3.20;99.90;;;;;;5035814;28;20455;-61
2023/01/23 08:45:05;;;;;;;13.60;9.83;;;3.20;99.90;;;;;;5036128;28;20988;-61
2023/01/23 08:47:35;;;;;;;13.13;10.07;;;3.30;99.90;;;;;;5035579;28;20489;-61
2023/01/23 08:50:04;;;;;;;14.43;10.30;;;3.30;99.90;;;;;;5035750;28;20560;-61
2023/01/23 08:52:33;;;;;;;14.03;10.87;;;3.40;99.90;;;;;;5035801;28;20479;-61
2023/01/23 08:55:01;;;;;;;14.53;10.53;;;3.30;99.90;;;;;;5035654;28;20974;-61
2023/01/23 08:57:30;;;;;;;13.03;10.33;;;3.30;99.90;;;;;;5035432;28;20467;-61
2023/01/23 08:59:59;;;;;;;14.63;11.70;;;3.50;99.90;;;;;;5045932;28;20467;-61
2023/01/23 09:02:27;;;;;;;12.93;10.57;;;3.40;99.90;;;;;;5046880;28;20848;-61
2023/01/23 09:04:55;;;;;;;13.43;10.33;;;3.40;99.90;;;;;;5039025;28;20874;-61
2023/01/23 09:07:23;;;;;;;13.37;11.07;;;3.40;99.90;;;;;;5055854;28;20496;-61
2023/01/23 09:09:51;;;;;;;14.80;11.20;;;3.30;99.90;;;;;;5047233;28;20461;-61
2023/01/23 09:12:19;;;;;;;15.13;11.10;;;3.20;99.90;;;;;;5034808;28;20470;-61
2023/01/23 09:14:48;;;;;;;14.27;10.43;;;3.30;99.90;;;;;;5020382;28;20823;-61
2023/01/23 09:17:16;;;;;;;15.93;11.90;;;3.40;99.90;;;;;;5027168;28;20466;-61
2023/01/23 09:19:45;;;;;;;13.90;11.07;;;3.50;99.90;;;;;;5035367;28;20467;-61
2023/01/23 09:22:12;;;;;;;15.77;12.13;;;3.40;99.90;;;;;;5025468;28;20467;-60
2023/01/23 09:24:40;;;;;;;16.47;11.47;;;3.40;99.90;;;;;;5034686;28;20478;-61
2023/01/23 09:27:09;;;;;;;16.87;12.77;;;3.40;99.90;;;;;;5024747;28;20490;-61
2023/01/23 09:29:37;;;;;;;17.00;12.17;;;3.40;99.90;;;;;;5038450;28;20523;-61
2023/01/23 09:32:07;;;;;;;18.23;12.43;;;3.40;99.90;;;;;;5034654;28;20995;-61
2023/01/23 09:34:35;;;;;;;16.27;12.33;;;3.50;99.90;;;;;;5042102;28;20455;-61
2023/01/23 09:37:03;;;;;;;19.40;12.50;;;3.50;99.90;;;;;;5034907;28;20470;-61
2023/01/23 09:39:31;;;;;;;16.27;11.83;;;3.50;99.90;;;;;;5034819;28;20820;-61
2023/01/23 09:42:06;;;;;;;14.33;12.10;;;3.50;99.90;;;;;;5034462;28;20527;-61
2023/01/23 09:44:40;;;;;;;13.30;11.67;;;3.60;99.90;;;;;;5034482;28;20792;-61
2023/01/23 09:47:13;;;;;;;14.73;11.93;;;3.50;99.90;;;;;;5034228;28;20835;-61
2023/01/23 09:49:44;;;;;;;14.97;11.30;;;3.50;99.90;;;;;;5034210;28;20481;-61
2023/01/23 09:52:16;;;;;;;15.13;12.23;;;3.70;99.90;;;;;;5034474;28;20471;-61
2023/01/23 09:54:46;;;;;;;14.93;11.47;;;3.50;99.90;;;;;;5034329;28;20528;-61
2023/01/23 09:57:19;;;;;;;16.30;12.97;;;3.60;99.90;;;;;;5034435;28;20829;-61
2023/01/23 09:59:51;;;;;;;15.07;12.33;;;3.50;99.90;;;;;;5048230;28;20543;-61
2023/01/23 10:02:29;;;;;;;14.20;11.70;;;3.50;99.90;;;;;;5020546;28;21102;-61
2023/01/23 10:05:01;;;;;;;13.97;11.83;;;3.50;99.90;;;;;;5045020;28;20487;-61
2023/01/23 10:07:54;;;;;;;17.87;13.47;;;3.50;99.90;;;;;;5030995;28;20478;-61
2023/01/23 10:10:41;;;;;;;15.30;12.43;;;3.50;99.90;;;;;;5034580;28;20476;-61
2023/01/23 10:13:16;;;;;;;17.13;12.13;;;3.60;99.90;;;;;;5034989;28;20821;-61
2023/01/23 10:16:12;;;;;;;17.10;12.57;;;3.60;99.90;;;;;;5034133;28;20825;-61
2023/01/23 10:18:48;;;;;;;15.37;12.90;;;3.60;99.90;;;;;;5033935;28;20466;-61
2023/01/23 10:21:27;;;;;;;15.90;12.10;;;3.70;99.90;;;;;;5032800;28;20471;-61
2023/01/23 10:24:03;;;;;;;15.30;12.67;;;3.70;99.90;;;;;;5033294;28;20821;-61
2023/01/23 10:26:34;;;;;;;16.37;12.13;;;3.70;99.90;;;;;;5032648;28;20521;-61
2023/01/23 10:29:21;;;;;;;14.20;11.93;;;3.70;99.90;;;;;;5032720;28;20483;-61
2023/01/23 10:31:55;;;;;;;16.77;12.07;;;3.60;99.90;;;;;;5033566;28;20986;-61
2023/01/23 10:34:34;;;;;;;14.23;11.20;;;3.80;99.90;;;;;;5044476;28;20475;-61
2023/01/23 10:37:13;;;;;;;17.20;13.23;;;3.90;99.90;;;;;;5041980;28;20470;-61
2023/01/23 10:39:49;;;;;;;16.87;12.03;;;4.00;99.90;;;;;;5033316;28;20472;-60
2023/01/23 10:42:22;;;;;;;16.40;12.67;;;4.00;99.90;;;;;;5030675;28;20475;-61
2023/01/23 10:44:51;;;;;;;14.53;12.27;;;3.90;99.90;;;;;;5033301;28;20524;-59
2023/01/23 10:47:27;;;;;;;14.30;11.43;;;4.10;99.90;;;;;;5033456;28;20955;-61
2023/01/23 10:50:02;;;;;;;15.00;12.10;;;4.30;99.90;;;;;;5023031;28;20812;-61
2023/01/23 10:52:36;;;;;;;16.50;13.03;;;4.30;99.90;;;;;;5032979;28;20463;-60
2023/01/23 10:55:06;;;;;;;14.90;11.90;;;4.10;99.90;;;;;;5033180;28;20537;-60
2023/01/23 10:57:44;;;;;;;13.60;11.67;;;4.10;99.90;;;;;;5033518;28;20466;-60
2023/01/23 11:00:21;;;;;;;16.27;12.33;;;4.20;99.90;;;;;;5033672;28;20930;-60
2023/01/23 11:02:49;;;;;;;17.40;14.17;;;4.40;99.90;;;;;;5038805;28;20980;-61
2023/01/23 11:05:36;;;;;;;17.63;14.07;;;4.40;99.90;;;;;;5044667;28;20466;-61
2023/01/23 11:08:27;;;;;;;17.33;14.10;;;4.20;99.90;;;;;;5020425;28;20477;-61
2023/01/23 11:11:17;;;;;;;17.53;12.30;;;4.20;99.90;;;;;;5032605;28;20466;-61
2023/01/23 11:13:47;;;;;;;17.13;13.47;;;4.20;99.90;;;;;;5031630;28;20462;-61
2023/01/23 11:16:17;;;;;;;14.87;12.93;;;4.10;99.90;;;;;;5032893;28;20462;-61
2023/01/23 11:18:52;;;;;;;16.63;13.53;;;4.20;99.90;;;;;;5043250;28;20467;-61
2023/01/23 11:21:28;;;;;;;18.60;13.90;;;4.40;99.90;;;;;;5020451;28;20470;-61
2023/01/23 11:24:10;;;;;;;19.13;13.83;;;4.30;99.90;;;;;;5031536;28;20547;-61
2023/01/23 11:26:39;;;;;;;14.77;12.67;;;4.30;99.90;;;;;;5020690;28;20468;-60
2023/01/23 11:29:21;;;;;;;17.93;14.73;;;4.50;99.90;;;;;;5040859;28;20493;-61
2023/01/23 11:31:53;;;;;;;17.97;13.80;;;4.30;99.90;;;;;;5038095;28;20465;-61
2023/01/23 11:34:27;;;;;;;16.13;13.33;;;4.60;99.90;;;;;;5038950;28;20501;-61
2023/01/23 11:37:04;;;;;;;16.30;14.10;;;4.40;99.90;;;;;;5030974;28;20471;-61
2023/01/23 11:39:46;;;;;;;16.43;13.43;;;4.30;99.90;;;;;;5032133;28;20463;-61
2023/01/23 11:42:16;;;;;;;16.03;13.70;;;4.30;99.90;;;;;;5031892;28;20482;-61
2023/01/23 11:44:45;;;;;;;16.23;12.97;;;4.30;99.90;;;;;;5031377;28;20464;-60
2023/01/23 11:47:41;;;;;;;15.57;12.90;;;4.20;99.90;;;;;;5035934;28;20474;-61
2023/01/23 11:50:30;;;;;;;17.47;12.27;;;4.20;99.90;;;;;;5025244;28;20492;-60
2023/01/23 11:53:05;;;;;;;21.30;14.23;;;4.30;99.90;;;;;;5037144;28;20485;-60
2023/01/23 11:56:20;;;;;;;16.10;13.73;;;4.30;99.90;;;;;;5051979;28;20549;-61
2023/01/23 11:59:31;;;;;;;15.17;12.37;;;4.30;99.90;;;;;;5022836;28;21061;-61
2023/01/23 12:02:19;;;;;;;17.93;14.50;;;4.40;99.90;;;;;;4991917;28;20480;-61
2023/01/23 12:05:15;;;;;;;19.57;13.47;;;4.30;99.90;;;;;;5034765;28;20455;-61
2023/01/23 12:07:50;;;;;;;17.03;14.43;;;4.60;99.90;;;;;;5029500;28;20463;-61
2023/01/23 12:10:26;;;;;;;16.33;13.20;;;4.60;99.90;;;;;;5020157;28;20831;-61
2023/01/23 12:13:11;;;;;;;16.77;14.03;;;4.80;99.90;;;;;;5035760;28;20474;-61
2023/01/23 12:15:46;;;;;;;15.57;13.33;;;4.60;99.90;;;;;;5038399;28;20466;-61
2023/01/23 12:18:29;;;;;;;16.83;12.03;;;4.60;99.90;;;;;;5025871;28;20973;-61
2023/01/23 12:21:03;;;;;;;16.67;12.87;;;4.80;99.90;;;;;;5036628;28;20470;-61
2023/01/23 12:23:47;;;;;;;18.20;13.87;;;4.90;99.90;;;;;;5039428;28;20470;-61
2023/01/23 12:26:19;;;;;;;17.70;13.73;;;4.80;99.90;;;;;;5031101;28;20997;-61
2023/01/23 12:29:08;;;;;;;18.53;14.30;;;4.90;99.90;;;;;;5031465;28;20498;-61
2023/01/23 12:32:07;;;;;;;15.00;12.17;;;4.70;99.90;;;;;;5030727;28;21007;-61
2023/01/23 12:34:51;;;;;;;17.70;14.93;;;4.70;99.90;;;;;;5032905;28;20466;-61
2023/01/23 12:37:42;;;;;;;17.50;14.07;;;4.60;99.90;;;;;;5039076;28;20794;-61
2023/01/23 12:40:15;;;;;;;20.97;13.10;;;4.70;99.90;;;;;;5027781;28;20468;-61
2023/01/23 12:42:50;;;;;;;21.40;15.33;;;4.80;99.90;;;;;;5031920;28;20478;-61
2023/01/23 12:45:22;;;;;;;18.20;14.20;;;4.80;99.90;;;;;;5034695;28;20564;-61
2023/01/23 12:47:58;;;;;;;17.30;13.07;;;4.70;99.90;;;;;;5032937;28;20458;-61
2023/01/23 12:50:36;;;;;;;19.33;13.70;;;4.60;99.90;;;;;;5031676;28;20484;-61
2023/01/23 12:53:09;;;;;;;16.90;13.50;;;4.70;99.90;;;;;;5033496;28;20466;-61
2023/01/23 12:55:43;;;;;;;18.83;13.53;;;4.80;99.90;;;;;;5043122;28;20482;-61
2023/01/23 12:58:16;;;;;;;16.40;12.80;;;4.60;99.90;;;;;;5036130;28;20814;-61
2023/01/23 13:01:00;;;;;;;16.73;13.80;;;4.70;99.90;;;;;;5036332;28;20487;-61
2023/01/23 13:03:51;;;;;;;15.57;12.17;;;4.60;99.90;;;;;;5034277;28;20458;-61
2023/01/23 13:06:39;;;;;;;17.53;13.67;;;4.70;99.90;;;;;;5040327;28;20470;-61
2023/01/23 13:09:21;;;;;;;15.43;12.77;;;4.80;99.90;;;;;;5028198;28;20509;-61
2023/01/23 13:11:58;;;;;;;15.63;12.53;;;4.70;99.90;;;;;;5035599;28;20851;-61
2023/01/23 13:14:44;;;;;;;20.73;14.57;;;4.80;99.90;;;;;;5033321;28;20465;-60
2023/01/23 13:17:37;;;;;;;17.27;13.70;;;4.80;99.90;;;;;;5038614;28;20463;-61
2023/01/23 13:23:29;;;;;;;17.77;13.50;;;4.90;99.90;;;;;;5028145;28;20489;-60
2023/01/23 13:26:28;;;;;;;16.80;13.43;;;4.90;99.90;;;;;;5034787;28;20970;-61
2023/01/23 13:29:03;;;;;;;16.20;12.37;;;4.70;99.90;;;;;;5035951;28;20873;-61